sensor_id;sensor_type;location;lat;lon;timestamp;P1;durP1;ratioP1;P2;durP2;ratioP2
16228;SDS011;8222;51.462;12.630;2023-11-19T00:00:08;4.10;;;3.70;;
16228;SDS011;8222;51.462;12.630;2023-11-19T00:02:38;3.92;;;3.10;;
16228;SDS011;8222;51.462;12.630;2023-11-19T00:05:05;3.13;;;2.83;;
16228;SDS011;8222;51.462;12.630;2023-11-19T00:07:37;3.40;;;3.10;;
16228;SDS011;8222;51.462;12.630;2023-11-19T00:10:09;3.38;;;3.08;;
16228;SDS011;8222;51.462;12.630;2023-11-19T00:12:42;2.90;;;2.70;;
16228;SDS011;8222;51.462;12.630;2023-11-19T00:15:09;3.03;;;2.58;;
16228;SDS011;8222;51.462;12.630;2023-11-19T00:17:38;4.13;;;3.00;;
16228;SDS011;8222;51.462;12.630;2023-11-19T00:20:16;3.88;;;2.75;;
16228;SDS011;8222;51.462;12.630;2023-11-19T00:22:52;2.33;;;2.10;;
16228;SDS011;8222;51.462;12.630;2023-11-19T00:25:19;3.85;;;2.70;;
16228;SDS011;8222;51.462;12.630;2023-11-19T00:27:49;2.75;;;2.13;;
16228;SDS011;8222;51.462;12.630;2023-11-19T00:30:18;2.67;;;2.20;;
16228;SDS011;8222;51.462;12.630;2023-11-19T00:32:49;2.47;;;2.10;;
16228;SDS011;8222;51.462;12.630;2023-11-19T00:35:17;2.28;;;2.08;;
16228;SDS011;8222;51.462;12.630;2023-11-19T00:37:46;950.97;;;724.87;;
16228;SDS011;8222;51.462;12.630;2023-11-19T00:40:12;1999.90;;;999.90;;
16228;SDS011;8222;51.462;12.630;2023-11-19T00:42:38;1999.90;;;999.90;;
16228;SDS011;8222;51.462;12.630;2023-11-19T00:45:06;1072.13;;;512.50;;
16228;SDS011;8222;51.462;12.630;2023-11-19T00:47:37;113.10;;;96.55;;
16228;SDS011;8222;51.462;12.630;2023-11-19T00:50:05;21.70;;;16.67;;
16228;SDS011;8222;51.462;12.630;2023-11-19T00:52:34;3.30;;;3.07;;
16228;SDS011;8222;51.462;12.630;2023-11-19T00:55:03;3.58;;;2.75;;
16228;SDS011;8222;51.462;12.630;2023-11-19T00:57:30;4.70;;;2.83;;
16228;SDS011;8222;51.462;12.630;2023-11-19T00:59:58;2.83;;;2.17;;
16228;SDS011;8222;51.462;12.630;2023-11-19T01:02:27;2.97;;;2.00;;
16228;SDS011;8222;51.462;12.630;2023-11-19T01:04:56;2.67;;;2.38;;
16228;SDS011;8222;51.462;12.630;2023-11-19T01:07:21;1.70;;;1.60;;
16228;SDS011;8222;51.462;12.630;2023-11-19T01:09:49;1.70;;;1.47;;
16228;SDS011;8222;51.462;12.630;2023-11-19T01:12:18;2.00;;;1.90;;
16228;SDS011;8222;51.462;12.630;2023-11-19T01:14:45;3.75;;;2.13;;
16228;SDS011;8222;51.462;12.630;2023-11-19T01:17:11;3.60;;;2.03;;
16228;SDS011;8222;51.462;12.630;2023-11-19T01:19:42;2.00;;;1.87;;
16228;SDS011;8222;51.462;12.630;2023-11-19T01:22:08;1.98;;;1.77;;
16228;SDS011;8222;51.462;12.630;2023-11-19T01:24:36;1.73;;;1.60;;
16228;SDS011;8222;51.462;12.630;2023-11-19T01:27:04;2.40;;;1.33;;
16228;SDS011;8222;51.462;12.630;2023-11-19T01:29:35;1.87;;;1.77;;
16228;SDS011;8222;51.462;12.630;2023-11-19T01:32:06;2.63;;;1.63;;
16228;SDS011;8222;51.462;12.630;2023-11-19T01:34:37;2.03;;;1.83;;
16228;SDS011;8222;51.462;12.630;2023-11-19T01:37:07;1.70;;;1.60;;
16228;SDS011;8222;51.462;12.630;2023-11-19T01:39:37;1.70;;;1.50;;
16228;SDS011;8222;51.462;12.630;2023-11-19T01:42:06;1.65;;;1.52;;
16228;SDS011;8222;51.462;12.630;2023-11-19T01:44:34;1.83;;;1.53;;
16228;SDS011;8222;51.462;12.630;2023-11-19T01:47:05;1.92;;;1.50;;
16228;SDS011;8222;51.462;12.630;2023-11-19T01:49:34;2.00;;;1.50;;
16228;SDS011;8222;51.462;12.630;2023-11-19T01:52:00;2.00;;;1.40;;
16228;SDS011;8222;51.462;12.630;2023-11-19T01:54:26;1.75;;;1.15;;
16228;SDS011;8222;51.462;12.630;2023-11-19T01:56:53;1.20;;;1.00;;
16228;SDS011;8222;51.462;12.630;2023-11-19T01:59:23;1.08;;;0.98;;
16228;SDS011;8222;51.462;12.630;2023-11-19T02:01:55;1.23;;;1.13;;
16228;SDS011;8222;51.462;12.630;2023-11-19T02:04:23;1.95;;;1.13;;
16228;SDS011;8222;51.462;12.630;2023-11-19T02:06:51;0.80;;;0.60;;
16228;SDS011;8222;51.462;12.630;2023-11-19T02:09:23;0.67;;;0.67;;
16228;SDS011;8222;51.462;12.630;2023-11-19T02:11:52;0.40;;;0.40;;
16228;SDS011;8222;51.462;12.630;2023-11-19T02:14:25;2.38;;;0.90;;
16228;SDS011;8222;51.462;12.630;2023-11-19T02:16:53;0.97;;;0.90;;
16228;SDS011;8222;51.462;12.630;2023-11-19T02:19:19;0.60;;;0.60;;
16228;SDS011;8222;51.462;12.630;2023-11-19T02:21:47;0.87;;;0.60;;
16228;SDS011;8222;51.462;12.630;2023-11-19T02:24:14;1.87;;;0.73;;
16228;SDS011;8222;51.462;12.630;2023-11-19T02:29:31;0.65;;;0.65;;
16228;SDS011;8222;51.462;12.630;2023-11-19T02:31:59;1.17;;;0.60;;
16228;SDS011;8222;51.462;12.630;2023-11-19T02:34:28;0.53;;;0.50;;
16228;SDS011;8222;51.462;12.630;2023-11-19T02:36:56;1.50;;;0.80;;
16228;SDS011;8222;51.462;12.630;2023-11-19T02:39:27;0.88;;;0.73;;
16228;SDS011;8222;51.462;12.630;2023-11-19T02:41:54;1.07;;;0.80;;
16228;SDS011;8222;51.462;12.630;2023-11-19T02:44:22;0.80;;;0.60;;
16228;SDS011;8222;51.462;12.630;2023-11-19T02:46:55;1.00;;;0.90;;
16228;SDS011;8222;51.462;12.630;2023-11-19T02:49:26;1.10;;;0.90;;
16228;SDS011;8222;51.462;12.630;2023-11-19T02:52:04;0.90;;;0.80;;
16228;SDS011;8222;51.462;12.630;2023-11-19T02:54:35;0.77;;;0.77;;
16228;SDS011;8222;51.462;12.630;2023-11-19T02:57:06;0.75;;;0.70;;
16228;SDS011;8222;51.462;12.630;2023-11-19T02:59:38;1.30;;;0.87;;
16228;SDS011;8222;51.462;12.630;2023-11-19T03:02:06;0.73;;;0.70;;
16228;SDS011;8222;51.462;12.630;2023-11-19T03:04:36;0.77;;;0.73;;
16228;SDS011;8222;51.462;12.630;2023-11-19T03:07:07;0.70;;;0.70;;
16228;SDS011;8222;51.462;12.630;2023-11-19T03:09:32;1.45;;;1.13;;
16228;SDS011;8222;51.462;12.630;2023-11-19T03:12:01;1.20;;;1.05;;
16228;SDS011;8222;51.462;12.630;2023-11-19T03:14:34;0.80;;;0.80;;
16228;SDS011;8222;51.462;12.630;2023-11-19T03:17:02;2.77;;;0.70;;
16228;SDS011;8222;51.462;12.630;2023-11-19T03:19:32;0.70;;;0.70;;
16228;SDS011;8222;51.462;12.630;2023-11-19T03:21:58;1.17;;;0.93;;
16228;SDS011;8222;51.462;12.630;2023-11-19T03:24:24;0.80;;;0.80;;
16228;SDS011;8222;51.462;12.630;2023-11-19T03:26:52;0.87;;;0.87;;
16228;SDS011;8222;51.462;12.630;2023-11-19T03:29:23;0.80;;;0.70;;
16228;SDS011;8222;51.462;12.630;2023-11-19T03:31:48;1.20;;;1.10;;
16228;SDS011;8222;51.462;12.630;2023-11-19T03:34:19;1.15;;;1.00;;
16228;SDS011;8222;51.462;12.630;2023-11-19T03:36:44;0.90;;;0.90;;
16228;SDS011;8222;51.462;12.630;2023-11-19T03:39:15;0.85;;;0.85;;
16228;SDS011;8222;51.462;12.630;2023-11-19T03:41:47;1.50;;;0.83;;
16228;SDS011;8222;51.462;12.630;2023-11-19T03:44:15;0.87;;;0.87;;
16228;SDS011;8222;51.462;12.630;2023-11-19T03:46:41;0.83;;;0.83;;
16228;SDS011;8222;51.462;12.630;2023-11-19T03:49:11;1.10;;;1.00;;
16228;SDS011;8222;51.462;12.630;2023-11-19T03:51:37;1.40;;;1.30;;
16228;SDS011;8222;51.462;12.630;2023-11-19T03:54:05;1.20;;;1.00;;
16228;SDS011;8222;51.462;12.630;2023-11-19T03:56:31;1.83;;;0.80;;
16228;SDS011;8222;51.462;12.630;2023-11-19T03:59:02;1.13;;;1.02;;
16228;SDS011;8222;51.462;12.630;2023-11-19T04:01:30;3.93;;;2.10;;
16228;SDS011;8222;51.462;12.630;2023-11-19T04:03:55;17.33;;;13.53;;
16228;SDS011;8222;51.462;12.630;2023-11-19T04:06:26;3.57;;;2.70;;
16228;SDS011;8222;51.462;12.630;2023-11-19T04:08:54;0.90;;;0.90;;
16228;SDS011;8222;51.462;12.630;2023-11-19T04:11:22;1.33;;;1.00;;
16228;SDS011;8222;51.462;12.630;2023-11-19T04:13:50;2.50;;;1.33;;
16228;SDS011;8222;51.462;12.630;2023-11-19T04:16:25;1.10;;;1.00;;
16228;SDS011;8222;51.462;12.630;2023-11-19T04:18:53;1.20;;;1.10;;
16228;SDS011;8222;51.462;12.630;2023-11-19T04:21:21;1.10;;;1.10;;
16228;SDS011;8222;51.462;12.630;2023-11-19T04:23:49;1.53;;;1.17;;
16228;SDS011;8222;51.462;12.630;2023-11-19T04:26:15;1.20;;;1.10;;
16228;SDS011;8222;51.462;12.630;2023-11-19T04:28:41;4.40;;;1.30;;
16228;SDS011;8222;51.462;12.630;2023-11-19T04:31:06;1.70;;;1.40;;
16228;SDS011;8222;51.462;12.630;2023-11-19T04:33:34;1.20;;;0.98;;
16228;SDS011;8222;51.462;12.630;2023-11-19T04:36:07;1.20;;;1.10;;
16228;SDS011;8222;51.462;12.630;2023-11-19T04:38:38;2.23;;;2.03;;
16228;SDS011;8222;51.462;12.630;2023-11-19T04:41:04;47.63;;;34.63;;
16228;SDS011;8222;51.462;12.630;2023-11-19T04:43:33;3.17;;;2.87;;
16228;SDS011;8222;51.462;12.630;2023-11-19T04:46:01;1.80;;;1.52;;
16228;SDS011;8222;51.462;12.630;2023-11-19T04:48:29;1.60;;;1.50;;
16228;SDS011;8222;51.462;12.630;2023-11-19T04:50:59;1.58;;;1.20;;
16228;SDS011;8222;51.462;12.630;2023-11-19T04:53:25;1.10;;;1.00;;
16228;SDS011;8222;51.462;12.630;2023-11-19T04:55:50;1.23;;;1.20;;
16228;SDS011;8222;51.462;12.630;2023-11-19T04:58:16;2.10;;;0.90;;
16228;SDS011;8222;51.462;12.630;2023-11-19T05:00:42;2.07;;;0.90;;
16228;SDS011;8222;51.462;12.630;2023-11-19T05:03:13;1.38;;;1.17;;
16228;SDS011;8222;51.462;12.630;2023-11-19T05:05:43;0.70;;;0.70;;
16228;SDS011;8222;51.462;12.630;2023-11-19T05:08:09;1.40;;;1.10;;
16228;SDS011;8222;51.462;12.630;2023-11-19T05:10:36;1.33;;;1.00;;
16228;SDS011;8222;51.462;12.630;2023-11-19T05:13:05;1.77;;;0.68;;
16228;SDS011;8222;51.462;12.630;2023-11-19T05:15:31;0.85;;;0.73;;
16228;SDS011;8222;51.462;12.630;2023-11-19T05:17:59;1.15;;;1.05;;
16228;SDS011;8222;51.462;12.630;2023-11-19T05:20:25;0.90;;;0.75;;
16228;SDS011;8222;51.462;12.630;2023-11-19T05:22:50;0.83;;;0.83;;
16228;SDS011;8222;51.462;12.630;2023-11-19T05:25:16;1.35;;;0.80;;
16228;SDS011;8222;51.462;12.630;2023-11-19T05:27:47;0.73;;;0.70;;
16228;SDS011;8222;51.462;12.630;2023-11-19T05:30:15;0.80;;;0.80;;
16228;SDS011;8222;51.462;12.630;2023-11-19T05:32:40;0.98;;;0.57;;
16228;SDS011;8222;51.462;12.630;2023-11-19T05:35:07;0.70;;;0.63;;
16228;SDS011;8222;51.462;12.630;2023-11-19T05:37:36;0.70;;;0.70;;
16228;SDS011;8222;51.462;12.630;2023-11-19T05:40:05;0.95;;;0.65;;
16228;SDS011;8222;51.462;12.630;2023-11-19T05:42:47;0.70;;;0.40;;
16228;SDS011;8222;51.462;12.630;2023-11-19T05:45:15;11.52;;;7.82;;
16228;SDS011;8222;51.462;12.630;2023-11-19T05:47:43;0.80;;;0.80;;
16228;SDS011;8222;51.462;12.630;2023-11-19T05:50:11;0.63;;;0.50;;
16228;SDS011;8222;51.462;12.630;2023-11-19T05:52:36;0.70;;;0.60;;
16228;SDS011;8222;51.462;12.630;2023-11-19T05:55:07;0.65;;;0.65;;
16228;SDS011;8222;51.462;12.630;2023-11-19T05:57:35;0.30;;;0.30;;
16228;SDS011;8222;51.462;12.630;2023-11-19T06:00:12;1.00;;;0.50;;
16228;SDS011;8222;51.462;12.630;2023-11-19T06:02:40;0.50;;;0.50;;
16228;SDS011;8222;51.462;12.630;2023-11-19T06:05:11;0.40;;;0.33;;
16228;SDS011;8222;51.462;12.630;2023-11-19T06:07:40;0.45;;;0.45;;
16228;SDS011;8222;51.462;12.630;2023-11-19T06:10:10;0.50;;;0.50;;
16228;SDS011;8222;51.462;12.630;2023-11-19T06:12:37;0.45;;;0.45;;
16228;SDS011;8222;51.462;12.630;2023-11-19T06:15:05;23.50;;;15.60;;
16228;SDS011;8222;51.462;12.630;2023-11-19T06:17:33;1.13;;;1.03;;
16228;SDS011;8222;51.462;12.630;2023-11-19T06:19:59;0.60;;;0.60;;
16228;SDS011;8222;51.462;12.630;2023-11-19T06:22:27;0.70;;;0.60;;
16228;SDS011;8222;51.462;12.630;2023-11-19T06:24:55;1.92;;;0.60;;
16228;SDS011;8222;51.462;12.630;2023-11-19T06:27:21;0.50;;;0.50;;
16228;SDS011;8222;51.462;12.630;2023-11-19T06:29:49;0.30;;;0.23;;
16228;SDS011;8222;51.462;12.630;2023-11-19T06:32:15;0.50;;;0.50;;
16228;SDS011;8222;51.462;12.630;2023-11-19T06:34:43;0.77;;;0.57;;
16228;SDS011;8222;51.462;12.630;2023-11-19T06:37:09;0.70;;;0.43;;
16228;SDS011;8222;51.462;12.630;2023-11-19T06:39:34;1.30;;;0.50;;
16228;SDS011;8222;51.462;12.630;2023-11-19T06:42:00;0.68;;;0.50;;
16228;SDS011;8222;51.462;12.630;2023-11-19T06:44:26;0.87;;;0.70;;
16228;SDS011;8222;51.462;12.630;2023-11-19T06:46:52;1.40;;;0.70;;
16228;SDS011;8222;51.462;12.630;2023-11-19T06:49:18;0.60;;;0.60;;
16228;SDS011;8222;51.462;12.630;2023-11-19T06:51:44;1.00;;;0.60;;
16228;SDS011;8222;51.462;12.630;2023-11-19T06:54:17;1.30;;;0.68;;
16228;SDS011;8222;51.462;12.630;2023-11-19T06:56:46;0.32;;;0.32;;
16228;SDS011;8222;51.462;12.630;2023-11-19T06:59:14;0.40;;;0.40;;
16228;SDS011;8222;51.462;12.630;2023-11-19T07:01:39;0.43;;;0.43;;
16228;SDS011;8222;51.462;12.630;2023-11-19T07:04:11;0.50;;;0.30;;
16228;SDS011;8222;51.462;12.630;2023-11-19T07:06:39;0.70;;;0.50;;
16228;SDS011;8222;51.462;12.630;2023-11-19T07:09:07;0.30;;;0.20;;
16228;SDS011;8222;51.462;12.630;2023-11-19T07:11:39;0.77;;;0.47;;
16228;SDS011;8222;51.462;12.630;2023-11-19T07:14:05;0.60;;;0.60;;
16228;SDS011;8222;51.462;12.630;2023-11-19T07:16:34;0.63;;;0.43;;
16228;SDS011;8222;51.462;12.630;2023-11-19T07:19:05;0.60;;;0.60;;
16228;SDS011;8222;51.462;12.630;2023-11-19T07:21:34;0.70;;;0.70;;
16228;SDS011;8222;51.462;12.630;2023-11-19T07:24:00;0.65;;;0.65;;
16228;SDS011;8222;51.462;12.630;2023-11-19T07:26:27;0.98;;;0.43;;
16228;SDS011;8222;51.462;12.630;2023-11-19T07:28:57;0.60;;;0.60;;
16228;SDS011;8222;51.462;12.630;2023-11-19T07:31:25;0.60;;;0.60;;
16228;SDS011;8222;51.462;12.630;2023-11-19T07:33:55;0.80;;;0.60;;
16228;SDS011;8222;51.462;12.630;2023-11-19T07:36:23;0.50;;;0.50;;
16228;SDS011;8222;51.462;12.630;2023-11-19T07:38:53;0.40;;;0.40;;
16228;SDS011;8222;51.462;12.630;2023-11-19T07:41:24;0.40;;;0.40;;
16228;SDS011;8222;51.462;12.630;2023-11-19T07:43:52;0.40;;;0.30;;
16228;SDS011;8222;51.462;12.630;2023-11-19T07:46:19;0.55;;;0.50;;
16228;SDS011;8222;51.462;12.630;2023-11-19T07:48:47;0.80;;;0.70;;
16228;SDS011;8222;51.462;12.630;2023-11-19T07:51:13;0.57;;;0.57;;
16228;SDS011;8222;51.462;12.630;2023-11-19T07:53:49;2.08;;;0.73;;
16228;SDS011;8222;51.462;12.630;2023-11-19T07:56:17;1.40;;;1.30;;
16228;SDS011;8222;51.462;12.630;2023-11-19T07:58:48;1.38;;;0.90;;
16228;SDS011;8222;51.462;12.630;2023-11-19T08:01:16;0.50;;;0.50;;
16228;SDS011;8222;51.462;12.630;2023-11-19T08:03:44;0.70;;;0.70;;
16228;SDS011;8222;51.462;12.630;2023-11-19T08:06:13;0.87;;;0.83;;
16228;SDS011;8222;51.462;12.630;2023-11-19T08:08:41;1.58;;;1.10;;
16228;SDS011;8222;51.462;12.630;2023-11-19T08:11:07;0.70;;;0.70;;
16228;SDS011;8222;51.462;12.630;2023-11-19T08:13:33;1.45;;;1.20;;
16228;SDS011;8222;51.462;12.630;2023-11-19T08:16:01;1.70;;;1.20;;
16228;SDS011;8222;51.462;12.630;2023-11-19T08:18:33;1.50;;;0.80;;
16228;SDS011;8222;51.462;12.630;2023-11-19T08:21:01;1.03;;;0.93;;
16228;SDS011;8222;51.462;12.630;2023-11-19T08:23:29;1.13;;;0.80;;
16228;SDS011;8222;51.462;12.630;2023-11-19T08:26:00;0.63;;;0.63;;
16228;SDS011;8222;51.462;12.630;2023-11-19T08:28:32;10.70;;;9.38;;
16228;SDS011;8222;51.462;12.630;2023-11-19T08:31:01;0.97;;;0.97;;
16228;SDS011;8222;51.462;12.630;2023-11-19T08:33:29;1.80;;;0.93;;
16228;SDS011;8222;51.462;12.630;2023-11-19T08:35:55;0.88;;;0.88;;
16228;SDS011;8222;51.462;12.630;2023-11-19T08:38:23;1.53;;;1.20;;
16228;SDS011;8222;51.462;12.630;2023-11-19T08:40:54;2.60;;;1.27;;
16228;SDS011;8222;51.462;12.630;2023-11-19T08:43:25;1.45;;;1.17;;
16228;SDS011;8222;51.462;12.630;2023-11-19T08:45:54;1.30;;;1.20;;
16228;SDS011;8222;51.462;12.630;2023-11-19T08:48:20;2.00;;;1.40;;
16228;SDS011;8222;51.462;12.630;2023-11-19T08:50:45;3.50;;;1.42;;
16228;SDS011;8222;51.462;12.630;2023-11-19T08:53:11;2.83;;;1.00;;
16228;SDS011;8222;51.462;12.630;2023-11-19T08:55:42;10.77;;;9.02;;
16228;SDS011;8222;51.462;12.630;2023-11-19T08:58:08;1.70;;;1.50;;
16228;SDS011;8222;51.462;12.630;2023-11-19T09:00:34;1.50;;;1.15;;
16228;SDS011;8222;51.462;12.630;2023-11-19T09:03:05;2.20;;;1.60;;
16228;SDS011;8222;51.462;12.630;2023-11-19T09:05:34;1.20;;;1.10;;
16228;SDS011;8222;51.462;12.630;2023-11-19T09:08:06;1.23;;;1.13;;
16228;SDS011;8222;51.462;12.630;2023-11-19T09:10:36;0.90;;;0.80;;
16228;SDS011;8222;51.462;12.630;2023-11-19T09:13:04;2.38;;;1.50;;
16228;SDS011;8222;51.462;12.630;2023-11-19T09:15:30;2.30;;;2.10;;
16228;SDS011;8222;51.462;12.630;2023-11-19T09:17:56;3.07;;;1.83;;
16228;SDS011;8222;51.462;12.630;2023-11-19T09:20:21;1.42;;;1.33;;
16228;SDS011;8222;51.462;12.630;2023-11-19T09:23:02;1.23;;;1.13;;
16228;SDS011;8222;51.462;12.630;2023-11-19T09:25:34;0.95;;;0.70;;
16228;SDS011;8222;51.462;12.630;2023-11-19T09:27:59;3.10;;;1.10;;
16228;SDS011;8222;51.462;12.630;2023-11-19T09:30:25;0.90;;;0.90;;
16228;SDS011;8222;51.462;12.630;2023-11-19T09:32:56;1.25;;;1.10;;
16228;SDS011;8222;51.462;12.630;2023-11-19T09:35:21;0.88;;;0.80;;
16228;SDS011;8222;51.462;12.630;2023-11-19T09:37:47;1.63;;;1.03;;
16228;SDS011;8222;51.462;12.630;2023-11-19T09:40:15;1.13;;;0.70;;
16228;SDS011;8222;51.462;12.630;2023-11-19T09:42:46;1.23;;;0.90;;
16228;SDS011;8222;51.462;12.630;2023-11-19T09:45:16;0.80;;;0.80;;
16228;SDS011;8222;51.462;12.630;2023-11-19T09:47:48;1.43;;;1.33;;
16228;SDS011;8222;51.462;12.630;2023-11-19T09:50:20;4.30;;;1.50;;
16228;SDS011;8222;51.462;12.630;2023-11-19T09:52:48;5.63;;;4.53;;
16228;SDS011;8222;51.462;12.630;2023-11-19T09:55:17;9.45;;;5.97;;
16228;SDS011;8222;51.462;12.630;2023-11-19T09:57:45;1.97;;;0.97;;
16228;SDS011;8222;51.462;12.630;2023-11-19T10:00:19;2.27;;;1.50;;
16228;SDS011;8222;51.462;12.630;2023-11-19T10:02:49;1.67;;;0.97;;
16228;SDS011;8222;51.462;12.630;2023-11-19T10:05:19;1.90;;;0.87;;
16228;SDS011;8222;51.462;12.630;2023-11-19T10:07:51;1.83;;;1.30;;
16228;SDS011;8222;51.462;12.630;2023-11-19T10:10:20;1.27;;;1.10;;
16228;SDS011;8222;51.462;12.630;2023-11-19T10:12:46;2.27;;;1.23;;
16228;SDS011;8222;51.462;12.630;2023-11-19T10:15:20;2.53;;;1.30;;
16228;SDS011;8222;51.462;12.630;2023-11-19T10:17:59;1.88;;;1.10;;
16228;SDS011;8222;51.462;12.630;2023-11-19T10:20:25;2.38;;;1.30;;
16228;SDS011;8222;51.462;12.630;2023-11-19T10:22:56;1.37;;;1.27;;
16228;SDS011;8222;51.462;12.630;2023-11-19T10:25:28;3.10;;;1.77;;
16228;SDS011;8222;51.462;12.630;2023-11-19T10:28:06;2.10;;;1.80;;
16228;SDS011;8222;51.462;12.630;2023-11-19T10:31:23;3.38;;;1.85;;
16228;SDS011;8222;51.462;12.630;2023-11-19T10:33:54;2.25;;;1.60;;
16228;SDS011;8222;51.462;12.630;2023-11-19T10:36:43;1.87;;;1.40;;
16228;SDS011;8222;51.462;12.630;2023-11-19T10:39:14;4.60;;;2.00;;
16228;SDS011;8222;51.462;12.630;2023-11-19T10:41:48;2.37;;;1.50;;
16228;SDS011;8222;51.462;12.630;2023-11-19T10:44:30;2.40;;;1.80;;
16228;SDS011;8222;51.462;12.630;2023-11-19T10:47:11;2.30;;;1.87;;
16228;SDS011;8222;51.462;12.630;2023-11-19T10:49:49;2.97;;;2.20;;
16228;SDS011;8222;51.462;12.630;2023-11-19T10:52:19;2.00;;;1.65;;
16228;SDS011;8222;51.462;12.630;2023-11-19T10:54:49;2.42;;;1.85;;
16228;SDS011;8222;51.462;12.630;2023-11-19T10:57:27;1.70;;;1.53;;
16228;SDS011;8222;51.462;12.630;2023-11-19T11:00:13;3.20;;;1.67;;
16228;SDS011;8222;51.462;12.630;2023-11-19T11:02:47;1.73;;;1.60;;
16228;SDS011;8222;51.462;12.630;2023-11-19T11:05:19;2.80;;;1.80;;
16228;SDS011;8222;51.462;12.630;2023-11-19T11:07:50;2.03;;;1.77;;
16228;SDS011;8222;51.462;12.630;2023-11-19T11:10:20;1.73;;;1.30;;
16228;SDS011;8222;51.462;12.630;2023-11-19T11:12:55;2.63;;;1.77;;
16228;SDS011;8222;51.462;12.630;2023-11-19T11:15:28;1.83;;;1.42;;
16228;SDS011;8222;51.462;12.630;2023-11-19T11:18:02;2.53;;;1.50;;
16228;SDS011;8222;51.462;12.630;2023-11-19T11:20:29;2.63;;;1.92;;
16228;SDS011;8222;51.462;12.630;2023-11-19T11:23:03;2.53;;;1.67;;
16228;SDS011;8222;51.462;12.630;2023-11-19T11:28:57;1.77;;;1.43;;
16228;SDS011;8222;51.462;12.630;2023-11-19T11:31:45;2.25;;;1.80;;
16228;SDS011;8222;51.462;12.630;2023-11-19T11:39:39;5.25;;;2.67;;
16228;SDS011;8222;51.462;12.630;2023-11-19T11:55:37;2.23;;;1.70;;
16228;SDS011;8222;51.462;12.630;2023-11-19T11:58:17;3.40;;;2.13;;
16228;SDS011;8222;51.462;12.630;2023-11-19T12:00:51;2.47;;;2.17;;
16228;SDS011;8222;51.462;12.630;2023-11-19T12:03:19;2.80;;;2.00;;
16228;SDS011;8222;51.462;12.630;2023-11-19T12:05:49;3.07;;;2.00;;
16228;SDS011;8222;51.462;12.630;2023-11-19T12:08:17;4.70;;;1.80;;
16228;SDS011;8222;51.462;12.630;2023-11-19T12:10:51;5.85;;;2.53;;
16228;SDS011;8222;51.462;12.630;2023-11-19T12:13:23;6.70;;;1.70;;
16228;SDS011;8222;51.462;12.630;2023-11-19T12:18:27;2.90;;;2.00;;
16228;SDS011;8222;51.462;12.630;2023-11-19T12:20:55;4.63;;;2.27;;
16228;SDS011;8222;51.462;12.630;2023-11-19T12:23:27;6.00;;;2.20;;
16228;SDS011;8222;51.462;12.630;2023-11-19T12:25:54;4.80;;;2.10;;
16228;SDS011;8222;51.462;12.630;2023-11-19T12:28:20;3.58;;;1.73;;
16228;SDS011;8222;51.462;12.630;2023-11-19T12:31:06;4.10;;;1.92;;
16228;SDS011;8222;51.462;12.630;2023-11-19T12:33:35;4.43;;;1.70;;
16228;SDS011;8222;51.462;12.630;2023-11-19T12:36:06;2.97;;;1.88;;
16228;SDS011;8222;51.462;12.630;2023-11-19T12:38:35;10.53;;;3.33;;
16228;SDS011;8222;51.462;12.630;2023-11-19T12:41:04;7.20;;;2.20;;
16228;SDS011;8222;51.462;12.630;2023-11-19T12:43:30;6.43;;;2.25;;
16228;SDS011;8222;51.462;12.630;2023-11-19T12:45:56;5.20;;;2.03;;
16228;SDS011;8222;51.462;12.630;2023-11-19T12:48:24;8.52;;;2.40;;
16228;SDS011;8222;51.462;12.630;2023-11-19T12:53:25;6.97;;;2.20;;
16228;SDS011;8222;51.462;12.630;2023-11-19T12:55:52;4.65;;;2.03;;
16228;SDS011;8222;51.462;12.630;2023-11-19T13:01:05;6.53;;;2.50;;
16228;SDS011;8222;51.462;12.630;2023-11-19T13:03:38;5.80;;;1.70;;
16228;SDS011;8222;51.462;12.630;2023-11-19T13:08:40;5.43;;;2.30;;
16228;SDS011;8222;51.462;12.630;2023-11-19T13:11:10;5.78;;;2.55;;
16228;SDS011;8222;51.462;12.630;2023-11-19T13:13:57;6.15;;;2.53;;
16228;SDS011;8222;51.462;12.630;2023-11-19T13:16:26;9.45;;;4.18;;
16228;SDS011;8222;51.462;12.630;2023-11-19T13:18:53;10.73;;;3.67;;
16228;SDS011;8222;51.462;12.630;2023-11-19T13:21:22;8.15;;;4.03;;
16228;SDS011;8222;51.462;12.630;2023-11-19T13:23:53;10.75;;;4.03;;
16228;SDS011;8222;51.462;12.630;2023-11-19T13:26:21;5.32;;;2.20;;
16228;SDS011;8222;51.462;12.630;2023-11-19T13:28:52;8.82;;;2.80;;
16228;SDS011;8222;51.462;12.630;2023-11-19T13:31:20;6.17;;;2.13;;
16228;SDS011;8222;51.462;12.630;2023-11-19T13:33:47;7.27;;;2.50;;
16228;SDS011;8222;51.462;12.630;2023-11-19T13:36:13;4.93;;;2.00;;
16228;SDS011;8222;51.462;12.630;2023-11-19T13:38:38;5.00;;;2.50;;
16228;SDS011;8222;51.462;12.630;2023-11-19T13:41:06;6.15;;;1.90;;
16228;SDS011;8222;51.462;12.630;2023-11-19T13:43:35;8.20;;;2.00;;
16228;SDS011;8222;51.462;12.630;2023-11-19T13:46:03;6.78;;;2.42;;
16228;SDS011;8222;51.462;12.630;2023-11-19T13:48:31;4.23;;;2.03;;
16228;SDS011;8222;51.462;12.630;2023-11-19T13:50:57;6.57;;;2.70;;
16228;SDS011;8222;51.462;12.630;2023-11-19T13:53:25;9.20;;;3.10;;
16228;SDS011;8222;51.462;12.630;2023-11-19T13:55:53;8.48;;;2.70;;
16228;SDS011;8222;51.462;12.630;2023-11-19T13:58:18;4.95;;;2.00;;
16228;SDS011;8222;51.462;12.630;2023-11-19T14:00:44;5.07;;;2.23;;
16228;SDS011;8222;51.462;12.630;2023-11-19T14:03:10;5.57;;;2.40;;
16228;SDS011;8222;51.462;12.630;2023-11-19T14:05:36;6.72;;;2.70;;
16228;SDS011;8222;51.462;12.630;2023-11-19T14:08:07;4.95;;;1.98;;
16228;SDS011;8222;51.462;12.630;2023-11-19T14:10:41;5.53;;;2.17;;
16228;SDS011;8222;51.462;12.630;2023-11-19T14:13:07;4.65;;;2.03;;
16228;SDS011;8222;51.462;12.630;2023-11-19T14:15:34;6.70;;;2.03;;
16228;SDS011;8222;51.462;12.630;2023-11-19T14:18:03;9.23;;;2.80;;
16228;SDS011;8222;51.462;12.630;2023-11-19T14:20:31;6.53;;;2.47;;
16228;SDS011;8222;51.462;12.630;2023-11-19T14:23:00;11.47;;;3.57;;
16228;SDS011;8222;51.462;12.630;2023-11-19T14:25:28;10.93;;;4.83;;
16228;SDS011;8222;51.462;12.630;2023-11-19T14:27:56;11.60;;;3.27;;
16228;SDS011;8222;51.462;12.630;2023-11-19T14:30:24;7.30;;;2.83;;
16228;SDS011;8222;51.462;12.630;2023-11-19T14:32:50;8.70;;;3.27;;
16228;SDS011;8222;51.462;12.630;2023-11-19T14:35:15;9.57;;;3.50;;
16228;SDS011;8222;51.462;12.630;2023-11-19T14:37:53;6.05;;;2.92;;
16228;SDS011;8222;51.462;12.630;2023-11-19T14:40:22;6.17;;;2.33;;
16228;SDS011;8222;51.462;12.630;2023-11-19T14:42:47;4.50;;;2.47;;
16228;SDS011;8222;51.462;12.630;2023-11-19T14:45:16;7.20;;;2.13;;
16228;SDS011;8222;51.462;12.630;2023-11-19T14:47:42;8.25;;;2.55;;
16228;SDS011;8222;51.462;12.630;2023-11-19T14:50:10;9.57;;;2.97;;
16228;SDS011;8222;51.462;12.630;2023-11-19T14:52:41;6.63;;;3.10;;
16228;SDS011;8222;51.462;12.630;2023-11-19T14:55:07;6.38;;;2.75;;
16228;SDS011;8222;51.462;12.630;2023-11-19T14:57:36;5.50;;;2.47;;
16228;SDS011;8222;51.462;12.630;2023-11-19T15:00:04;6.50;;;2.30;;
16228;SDS011;8222;51.462;12.630;2023-11-19T15:02:38;6.88;;;2.20;;
16228;SDS011;8222;51.462;12.630;2023-11-19T15:05:08;5.95;;;2.53;;
16228;SDS011;8222;51.462;12.630;2023-11-19T15:07:49;9.70;;;2.65;;
16228;SDS011;8222;51.462;12.630;2023-11-19T15:10:18;8.48;;;2.00;;
16228;SDS011;8222;51.462;12.630;2023-11-19T15:12:45;6.63;;;1.93;;
16228;SDS011;8222;51.462;12.630;2023-11-19T15:15:11;10.80;;;2.97;;
16228;SDS011;8222;51.462;12.630;2023-11-19T15:17:39;4.85;;;2.53;;
16228;SDS011;8222;51.462;12.630;2023-11-19T15:20:10;7.55;;;2.38;;
16228;SDS011;8222;51.462;12.630;2023-11-19T15:22:38;8.57;;;1.87;;
16228;SDS011;8222;51.462;12.630;2023-11-19T15:25:07;10.07;;;2.20;;
16228;SDS011;8222;51.462;12.630;2023-11-19T15:27:36;4.47;;;2.10;;
16228;SDS011;8222;51.462;12.630;2023-11-19T15:30:02;5.65;;;2.35;;
16228;SDS011;8222;51.462;12.630;2023-11-19T15:32:33;4.27;;;1.93;;